createdAt,value
2017-06-27T00:02:07.700Z,86.40
2017-06-27T00:04:35.171Z,86.10
2017-06-27T00:07:07.323Z,86.40
2017-06-27T00:09:35.544Z,86.80
2017-06-27T00:12:02.997Z,86.60
2017-06-27T00:14:30.451Z,86.70
2017-06-27T00:16:57.907Z,86.30
2017-06-27T00:19:25.364Z,86.70
2017-06-27T00:21:52.821Z,86.80
2017-06-27T00:24:20.282Z,87.50
2017-06-27T00:26:47.751Z,87.80
2017-06-27T00:29:16.386Z,88.20
2017-06-27T00:31:44.617Z,87.70
2017-06-27T00:34:12.069Z,87.50
2017-06-27T00:36:39.544Z,88.20
2017-06-27T00:39:07.068Z,88.90
2017-06-27T00:41:35.061Z,88.80
2017-06-27T00:44:02.506Z,89.00
2017-06-27T00:46:30.338Z,88.80
2017-06-27T00:48:57.795Z,89.00
2017-06-27T00:51:25.238Z,89.20
2017-06-27T00:53:53.463Z,88.40
2017-06-27T00:56:20.916Z,88.20
2017-06-27T00:58:48.392Z,88.10
2017-06-27T01:01:15.854Z,87.80
2017-06-27T01:03:43.311Z,87.50
2017-06-27T01:06:10.791Z,87.30
2017-06-27T01:11:31.319Z,87.80
2017-06-27T01:13:58.780Z,88.10
2017-06-27T01:16:26.232Z,88.10
2017-06-27T01:18:53.705Z,87.70
2017-06-27T01:21:21.170Z,87.20
2017-06-27T01:23:48.609Z,87.10
2017-06-27T01:26:16.063Z,87.30
2017-06-27T01:28:43.516Z,86.80
2017-06-27T01:31:10.987Z,87.00
2017-06-27T01:33:38.773Z,88.30
2017-06-27T01:36:07.441Z,89.20
2017-06-27T01:38:34.883Z,89.90
2017-06-27T01:41:03.455Z,89.80
2017-06-27T01:43:30.898Z,90.00
2017-06-27T01:57:41.632Z,90.40
2017-06-27T02:00:09.083Z,90.00
2017-06-27T02:02:36.547Z,90.00
2017-06-27T02:05:03.999Z,90.10
2017-06-27T02:07:41.803Z,90.20
2017-06-27T02:10:09.251Z,90.20
2017-06-27T02:12:36.710Z,89.70
2017-06-27T02:15:04.163Z,90.00
2017-06-27T02:17:31.622Z,90.10
2017-06-27T02:19:59.076Z,90.00
2017-06-27T02:22:26.532Z,89.80
2017-06-27T02:24:53.971Z,89.70
2017-06-27T02:27:21.434Z,89.90
2017-06-27T02:29:48.887Z,89.80
2017-06-27T02:32:17.531Z,89.90
2017-06-27T02:34:45.615Z,90.10
2017-06-27T02:37:13.065Z,90.20
2017-06-27T02:39:40.541Z,90.20
2017-06-27T02:42:07.971Z,90.10
2017-06-27T02:44:36.046Z,90.50
2017-06-27T02:47:03.500Z,90.40
2017-06-27T02:49:30.949Z,90.40
2017-06-27T02:51:58.387Z,90.40
2017-06-27T02:54:25.858Z,90.30
2017-06-27T02:56:54.076Z,90.00
2017-06-27T02:59:21.547Z,89.90
2017-06-27T03:01:48.992Z,90.00
2017-06-27T03:04:16.458Z,89.60
2017-06-27T03:06:45.750Z,90.50
2017-06-27T03:09:13.559Z,90.70
2017-06-27T03:11:41.013Z,90.60
2017-06-27T03:14:08.820Z,90.60
2017-06-27T03:16:37.087Z,90.40
2017-06-27T03:19:04.532Z,90.90
2017-06-27T03:21:32.751Z,91.60
2017-06-27T03:24:00.199Z,91.60
2017-06-27T03:26:27.650Z,91.70
2017-06-27T03:28:55.095Z,91.40
2017-06-27T03:31:23.467Z,91.30
2017-06-27T03:33:50.902Z,91.40
2017-06-27T03:36:18.359Z,91.70
2017-06-27T03:38:45.814Z,92.30
2017-06-27T03:41:14.047Z,92.80
2017-06-27T03:43:41.495Z,93.00
2017-06-27T03:46:08.939Z,93.20
2017-06-27T03:48:36.396Z,93.10
2017-06-27T03:51:03.843Z,93.00
2017-06-27T03:53:31.303Z,93.00
2017-06-27T03:55:58.758Z,93.30
2017-06-27T03:58:26.221Z,93.00
2017-06-27T04:00:53.651Z,92.90
2017-06-27T04:03:21.876Z,92.70
2017-06-27T04:05:49.320Z,92.70
2017-06-27T04:08:16.779Z,92.40
2017-06-27T04:10:44.222Z,92.20
2017-06-27T04:13:11.682Z,92.80
2017-06-27T04:15:39.127Z,93.00
2017-06-27T04:18:06.575Z,92.60
2017-06-27T04:20:34.791Z,93.10
2017-06-27T04:23:02.237Z,93.10
2017-06-27T04:25:29.703Z,93.00
2017-06-27T04:27:57.150Z,92.60
2017-06-27T04:30:24.623Z,92.40
2017-06-27T04:32:52.063Z,91.70
2017-06-27T04:35:19.509Z,91.40
2017-06-27T04:37:46.959Z,91.80
2017-06-27T04:40:14.406Z,91.20
2017-06-27T04:42:42.482Z,90.60
2017-06-27T04:45:09.922Z,91.20
2017-06-27T04:47:37.373Z,91.50
2017-06-27T04:50:06.083Z,90.40
2017-06-27T04:52:33.543Z,90.40
2017-06-27T04:55:00.987Z,90.20
2017-06-27T04:57:29.135Z,90.00
2017-06-27T04:59:56.578Z,89.80
2017-06-27T05:02:24.403Z,90.40
2017-06-27T05:04:51.835Z,89.30
2017-06-27T05:07:19.275Z,88.30
2017-06-27T05:09:46.731Z,88.40
2017-06-27T05:12:14.167Z,88.10
2017-06-27T05:14:41.627Z,88.40
2017-06-27T05:17:09.074Z,88.30
2017-06-27T05:19:37.450Z,89.60
2017-06-27T05:22:04.891Z,90.50
2017-06-27T05:24:32.351Z,88.90
2017-06-27T05:26:59.797Z,90.40
2017-06-27T05:29:27.240Z,92.30
2017-06-27T05:31:54.699Z,92.40
2017-06-27T05:34:22.150Z,92.80
2017-06-27T05:36:49.606Z,93.30
2017-06-27T05:39:17.038Z,93.40
2017-06-27T05:41:45.261Z,93.80
2017-06-27T05:44:12.698Z,93.70
2017-06-27T05:46:40.150Z,93.30
2017-06-27T05:49:08.130Z,93.70
2017-06-27T05:51:36.476Z,93.50
2017-06-27T05:54:04.289Z,93.00
2017-06-27T05:56:31.742Z,92.50
2017-06-27T05:58:59.182Z,92.50
2017-06-27T06:01:26.683Z,92.00
2017-06-27T06:03:54.943Z,92.50
2017-06-27T06:06:22.401Z,91.50
2017-06-27T06:08:50.426Z,91.50
2017-06-27T06:11:18.626Z,91.20
2017-06-27T06:13:46.426Z,91.10
2017-06-27T06:16:14.979Z,92.00
2017-06-27T06:18:42.430Z,91.70
2017-06-27T06:21:09.938Z,90.90
2017-06-27T06:23:37.387Z,90.40
2017-06-27T06:26:05.744Z,87.30
2017-06-27T06:28:33.210Z,87.10
2017-06-27T06:31:00.671Z,86.10
2017-06-27T06:33:28.226Z,83.40
2017-06-27T06:35:55.687Z,82.00
2017-06-27T06:38:23.123Z,84.00
2017-06-27T06:40:50.577Z,82.10
2017-06-27T06:43:18.058Z,81.60
2017-06-27T06:45:45.519Z,82.00
2017-06-27T06:48:13.304Z,82.30
2017-06-27T06:50:40.739Z,82.10
2017-06-27T06:53:08.179Z,81.40
2017-06-27T06:55:35.630Z,80.90
2017-06-27T06:58:03.107Z,81.70
2017-06-27T07:00:30.563Z,81.00
2017-06-27T07:02:58.003Z,81.50
2017-06-27T07:05:25.488Z,81.80
2017-06-27T07:07:53.034Z,80.80
2017-06-27T07:10:20.475Z,80.40
2017-06-27T07:12:48.175Z,79.80
2017-06-27T07:15:15.611Z,80.10
2017-06-27T07:17:43.151Z,77.20
2017-06-27T07:20:10.591Z,76.30
2017-06-27T07:22:38.044Z,76.50
2017-06-27T07:25:05.483Z,75.20
2017-06-27T07:27:33.699Z,73.50
2017-06-27T07:30:01.171Z,73.40
2017-06-27T07:32:28.730Z,72.30
2017-06-27T07:34:56.164Z,72.20
2017-06-27T07:37:23.647Z,72.90
2017-06-27T07:39:51.750Z,72.90
2017-06-27T07:42:20.915Z,72.30
2017-06-27T07:44:48.367Z,72.20
2017-06-27T07:47:17.271Z,74.10
2017-06-27T07:49:45.348Z,74.00
2017-06-27T07:52:12.788Z,76.70
2017-06-27T07:54:40.362Z,77.30
2017-06-27T07:57:07.795Z,79.10
2017-06-27T07:59:35.512Z,78.10
2017-06-27T08:02:03.720Z,78.50
2017-06-27T08:04:31.938Z,78.20
2017-06-27T08:06:59.390Z,78.40
2017-06-27T08:09:26.853Z,78.70
2017-06-27T08:11:54.290Z,79.80
2017-06-27T08:14:21.730Z,79.70
2017-06-27T08:16:49.186Z,79.50
2017-06-27T08:19:17.422Z,79.70
2017-06-27T08:21:46.471Z,79.30
2017-06-27T08:24:13.908Z,79.30
2017-06-27T08:26:41.367Z,78.40
2017-06-27T08:29:08.821Z,77.80
2017-06-27T08:31:36.266Z,76.50
2017-06-27T08:34:03.702Z,77.10
2017-06-27T08:36:31.157Z,77.60
2017-06-27T08:39:00.182Z,77.70
2017-06-27T08:41:27.658Z,77.60
2017-06-27T08:43:55.114Z,76.90
2017-06-27T08:46:22.553Z,74.60
2017-06-27T08:48:50.005Z,74.70
2017-06-27T08:51:17.446Z,74.80
2017-06-27T08:53:46.052Z,74.30
2017-06-27T08:56:13.919Z,72.00
2017-06-27T08:58:41.347Z,73.10
2017-06-27T09:01:08.794Z,75.10
2017-06-27T09:03:36.253Z,74.70
2017-06-27T09:06:04.457Z,77.30
2017-06-27T09:08:31.899Z,77.20
2017-06-27T09:10:59.332Z,78.30
2017-06-27T09:13:27.549Z,78.30
2017-06-27T09:15:55.906Z,78.30
2017-06-27T09:18:23.342Z,78.80
2017-06-27T09:20:51.559Z,80.10
2017-06-27T09:23:19.000Z,80.10
2017-06-27T09:25:46.446Z,80.40
2017-06-27T09:28:13.900Z,80.40
2017-06-27T09:30:41.347Z,80.70
2017-06-27T09:33:09.562Z,80.60
2017-06-27T09:35:36.999Z,80.50
2017-06-27T09:38:05.292Z,80.90
2017-06-27T09:40:32.739Z,80.40
2017-06-27T09:43:00.187Z,80.00
2017-06-27T09:45:27.639Z,79.60
2017-06-27T09:47:55.083Z,78.60
2017-06-27T09:50:23.299Z,76.90
2017-06-27T09:52:50.726Z,76.90
2017-06-27T09:55:18.179Z,76.10
2017-06-27T09:57:45.623Z,74.40
2017-06-27T10:00:13.835Z,75.40
2017-06-27T10:02:41.566Z,75.30
2017-06-27T10:05:10.415Z,77.20
2017-06-27T10:07:37.858Z,76.00
2017-06-27T10:10:06.143Z,77.00
2017-06-27T10:12:33.607Z,76.50
2017-06-27T10:15:01.051Z,77.30
2017-06-27T10:17:28.498Z,77.80
2017-06-27T10:28:34.179Z,80.50
2017-06-27T10:31:01.627Z,79.80
2017-06-27T10:33:29.845Z,79.10
2017-06-27T10:35:57.279Z,78.90
2017-06-27T10:38:24.748Z,78.00
2017-06-27T10:40:52.191Z,77.40
2017-06-27T10:43:19.631Z,78.40
2017-06-27T10:45:47.093Z,79.60
2017-06-27T10:48:14.540Z,79.70
2017-06-27T10:50:42.768Z,78.70
2017-06-27T10:53:10.207Z,78.60
2017-06-27T10:55:37.657Z,79.50
2017-06-27T10:58:05.091Z,80.50
2017-06-27T11:00:32.549Z,80.70
2017-06-27T11:02:59.983Z,79.50
2017-06-27T11:05:29.207Z,77.50
2017-06-27T11:07:56.648Z,76.80
2017-06-27T11:10:24.871Z,76.60
2017-06-27T11:12:52.891Z,76.50
2017-06-27T11:15:21.095Z,75.10
2017-06-27T11:17:48.546Z,75.00
2017-06-27T11:20:15.986Z,74.00
2017-06-27T11:22:44.203Z,73.30
2017-06-27T11:25:11.650Z,73.10
2017-06-27T11:27:39.113Z,74.50
2017-06-27T11:30:06.556Z,75.50
2017-06-27T11:32:34.011Z,74.10
2017-06-27T11:35:01.448Z,73.90
2017-06-27T11:37:28.906Z,75.50
2017-06-27T11:39:56.343Z,76.20
2017-06-27T11:42:24.555Z,76.00
2017-06-27T11:44:52.002Z,75.90
2017-06-27T11:47:19.439Z,75.50
2017-06-27T11:49:47.655Z,74.20
2017-06-27T11:52:15.095Z,74.10
2017-06-27T11:54:42.548Z,72.80
2017-06-27T11:57:09.987Z,72.80
2017-06-27T11:59:38.202Z,73.20
2017-06-27T12:02:10.394Z,73.10
2017-06-27T12:04:37.846Z,72.40
2017-06-27T12:07:16.967Z,71.90
2017-06-27T12:09:44.411Z,71.20
2017-06-27T12:12:11.862Z,70.30
2017-06-27T12:14:39.323Z,70.00
2017-06-27T12:17:06.755Z,68.90
2017-06-27T12:19:34.203Z,66.90
2017-06-27T12:22:02.411Z,67.30
2017-06-27T12:24:29.851Z,67.20
2017-06-27T12:26:57.303Z,67.80
2017-06-27T12:29:24.743Z,67.70
2017-06-27T12:31:52.967Z,68.50
2017-06-27T12:34:20.413Z,68.40
2017-06-27T12:36:47.864Z,68.20
2017-06-27T12:39:15.304Z,68.70
2017-06-27T12:41:42.756Z,69.90
2017-06-27T12:44:10.199Z,68.80
2017-06-27T12:46:38.425Z,67.70
2017-06-27T12:49:05.851Z,67.70
2017-06-27T12:51:33.298Z,67.50
2017-06-27T12:54:00.740Z,69.30
2017-06-27T12:56:28.213Z,70.70
2017-06-27T12:58:56.420Z,68.20
2017-06-27T13:01:23.859Z,68.20
2017-06-27T13:03:51.307Z,68.10
2017-06-27T13:06:18.747Z,67.50
2017-06-27T13:08:46.959Z,68.40
2017-06-27T13:11:14.408Z,67.70
2017-06-27T13:13:41.855Z,67.50
2017-06-27T13:16:09.295Z,67.10
2017-06-27T13:18:37.510Z,67.90
2017-06-27T13:21:04.951Z,67.80
2017-06-27T13:23:32.403Z,67.10
2017-06-27T13:25:59.858Z,66.20
2017-06-27T13:28:28.189Z,66.80
2017-06-27T13:30:55.623Z,65.00
2017-06-27T13:33:23.090Z,64.20
2017-06-27T13:35:50.531Z,64.50
2017-06-27T13:38:17.979Z,65.60
2017-06-27T13:40:45.436Z,63.90
2017-06-27T13:43:12.885Z,67.60
2017-06-27T13:45:40.323Z,69.20
2017-06-27T13:48:07.767Z,67.50
2017-06-27T13:53:10.003Z,68.90
2017-06-27T13:55:37.461Z,69.00
2017-06-27T13:58:04.895Z,67.80
2017-06-27T14:00:32.366Z,68.50
2017-06-27T14:02:59.802Z,69.40
2017-06-27T14:05:27.243Z,67.60
2017-06-27T14:07:54.701Z,65.00
2017-06-27T14:10:22.907Z,64.90
2017-06-27T14:12:50.370Z,64.70
2017-06-27T14:15:17.802Z,66.40
2017-06-27T14:17:45.252Z,67.10
2017-06-27T14:20:12.696Z,65.90
2017-06-27T14:22:40.919Z,66.60
2017-06-27T14:25:08.367Z,66.50
2017-06-27T14:27:35.830Z,65.70
2017-06-27T14:30:03.279Z,65.70
2017-06-27T14:32:30.743Z,67.30
2017-06-27T14:34:58.183Z,67.90
2017-06-27T14:37:25.623Z,68.50
2017-06-27T14:39:53.071Z,69.40
2017-06-27T14:42:21.279Z,69.80
2017-06-27T14:44:48.731Z,69.70
2017-06-27T14:47:16.195Z,69.80
2017-06-27T14:49:43.635Z,70.60
2017-06-27T14:52:11.078Z,71.00
2017-06-27T14:54:38.531Z,70.80
2017-06-27T14:57:06.738Z,70.60
2017-06-27T14:59:34.196Z,70.50
2017-06-27T15:02:01.635Z,68.00
2017-06-27T15:04:29.087Z,69.30
2017-06-27T15:06:56.527Z,69.70
2017-06-27T15:09:24.746Z,67.50
2017-06-27T15:11:52.197Z,67.50
2017-06-27T15:14:19.638Z,68.30
2017-06-27T15:16:47.086Z,69.10
2017-06-27T15:19:14.536Z,68.90
2017-06-27T15:21:41.987Z,70.30
2017-06-27T15:24:10.195Z,71.70
2017-06-27T15:26:37.639Z,71.50
2017-06-27T15:29:05.075Z,72.50
2017-06-27T15:31:33.291Z,73.70
2017-06-27T15:34:00.742Z,73.70
2017-06-27T15:36:28.176Z,74.60
2017-06-27T15:38:55.628Z,75.40
2017-06-27T15:41:23.069Z,75.10
2017-06-27T15:43:51.288Z,75.00
2017-06-27T15:46:18.727Z,74.90
2017-06-27T15:48:46.186Z,75.00
2017-06-27T15:51:13.638Z,75.00
2017-06-27T15:53:41.098Z,74.40
2017-06-27T15:56:08.538Z,75.70
2017-06-27T15:58:36.751Z,76.10
2017-06-27T16:01:04.203Z,76.10
2017-06-27T16:03:31.671Z,76.20
2017-06-27T16:06:00.104Z,76.70
2017-06-27T16:08:28.310Z,77.80
2017-06-27T16:10:55.760Z,77.80
2017-06-27T16:13:23.200Z,77.60
2017-06-27T16:15:51.416Z,77.90
2017-06-27T16:18:18.850Z,77.90
2017-06-27T16:20:46.303Z,77.80
2017-06-27T16:23:13.743Z,77.80
2017-06-27T16:25:41.203Z,77.70
2017-06-27T16:28:08.644Z,77.90
2017-06-27T16:30:36.868Z,78.80
2017-06-27T16:33:04.312Z,78.00
2017-06-27T16:35:31.781Z,77.80
2017-06-27T16:37:59.291Z,78.60
2017-06-27T16:40:27.507Z,78.60
2017-06-27T16:42:54.956Z,78.60
2017-06-27T16:45:22.411Z,79.50
2017-06-27T16:47:49.853Z,79.60
2017-06-27T16:50:17.295Z,79.80
2017-06-27T16:52:45.508Z,80.00
2017-06-27T16:55:12.955Z,79.90
2017-06-27T16:57:40.421Z,80.30
2017-06-27T17:00:07.859Z,79.60
2017-06-27T17:02:35.311Z,79.40
2017-06-27T17:05:02.797Z,80.20
2017-06-27T17:07:30.230Z,80.60
2017-06-27T17:09:57.674Z,80.40
2017-06-27T17:12:25.107Z,80.40
2017-06-27T17:14:52.554Z,80.60
2017-06-27T17:17:20.080Z,81.20
2017-06-27T17:19:47.519Z,80.80
2017-06-27T17:22:14.960Z,81.00
2017-06-27T17:24:42.467Z,82.00
2017-06-27T17:27:09.908Z,81.90
2017-06-27T17:29:37.367Z,82.40
2017-06-27T17:32:04.812Z,84.30
2017-06-27T17:34:32.264Z,83.20
2017-06-27T17:36:59.694Z,83.30
2017-06-27T17:39:27.920Z,84.40
2017-06-27T17:41:55.367Z,84.20
2017-06-27T17:44:22.843Z,85.00
2017-06-27T17:46:50.295Z,83.40
2017-06-27T17:49:17.735Z,84.00
2017-06-27T17:51:45.183Z,84.10
2017-06-27T17:54:12.619Z,83.60
2017-06-27T17:56:40.080Z,84.50
2017-06-27T17:59:07.520Z,85.50
2017-06-27T18:01:34.971Z,86.80
2017-06-27T18:04:02.411Z,87.80
2017-06-27T18:06:29.862Z,87.80
2017-06-27T18:08:57.299Z,90.00
2017-06-27T18:11:24.751Z,89.30
2017-06-27T18:13:52.192Z,89.50
2017-06-27T18:16:19.675Z,89.20
2017-06-27T18:18:47.123Z,89.20
2017-06-27T18:21:14.555Z,89.00
2017-06-27T18:23:42.006Z,88.70
2017-06-27T18:26:10.272Z,89.40
2017-06-27T18:28:37.783Z,88.90
2017-06-27T18:31:05.232Z,88.50
2017-06-27T18:33:32.686Z,88.60
2017-06-27T18:36:00.124Z,88.80
2017-06-27T18:38:27.580Z,88.60
2017-06-27T18:40:55.019Z,88.40
2017-06-27T18:43:22.455Z,88.30
2017-06-27T18:45:49.903Z,88.10
2017-06-27T18:48:17.343Z,88.10
2017-06-27T18:50:44.796Z,88.00
2017-06-27T18:53:12.235Z,88.50
2017-06-27T18:55:39.698Z,88.50
2017-06-27T18:58:07.139Z,88.70
2017-06-27T19:00:34.592Z,88.90
2017-06-27T19:03:02.064Z,89.30
2017-06-27T19:05:29.743Z,89.60
2017-06-27T19:07:57.183Z,90.00
2017-06-27T19:10:24.635Z,90.00
2017-06-27T19:12:52.103Z,90.00
2017-06-27T19:15:19.546Z,90.00
2017-06-27T19:17:47.002Z,90.00
2017-06-27T19:20:14.444Z,90.00
2017-06-27T19:22:41.891Z,90.10
2017-06-27T19:25:09.331Z,90.20
2017-06-27T19:27:37.547Z,90.60
2017-06-27T19:30:04.995Z,90.60
2017-06-27T19:32:32.482Z,90.70
2017-06-27T19:34:59.901Z,90.80
2017-06-27T19:37:27.351Z,91.00
2017-06-27T19:39:54.798Z,91.10
2017-06-27T19:42:23.001Z,91.10
2017-06-27T19:44:50.458Z,91.10
2017-06-27T19:47:17.896Z,91.30
2017-06-27T19:49:45.344Z,91.50
2017-06-27T19:52:13.546Z,91.90
2017-06-27T19:54:40.995Z,91.90
2017-06-27T19:57:08.439Z,92.00
2017-06-27T19:59:35.900Z,91.90
2017-06-27T20:02:03.332Z,91.90
2017-06-27T20:04:31.552Z,92.00
2017-06-27T20:06:58.991Z,92.00
2017-06-27T20:09:26.445Z,92.20
2017-06-27T20:11:53.891Z,92.10
2017-06-27T20:14:21.327Z,92.30
2017-06-27T20:16:48.778Z,92.20
2017-06-27T20:19:16.219Z,92.00
2017-06-27T20:21:43.679Z,92.00
2017-06-27T20:24:11.132Z,92.00
2017-06-27T20:26:38.584Z,92.10
2017-06-27T20:29:06.019Z,91.90
2017-06-27T20:31:33.475Z,91.90
2017-06-27T20:34:00.936Z,92.00
2017-06-27T20:36:28.390Z,92.10
2017-06-27T20:38:55.828Z,92.30
2017-06-27T20:41:23.289Z,92.70
2017-06-27T20:43:50.727Z,92.90
2017-06-27T20:46:18.939Z,93.30
2017-06-27T20:48:46.399Z,93.20
2017-06-27T20:51:13.848Z,93.30
2017-06-27T20:53:41.305Z,93.30
2017-06-27T20:56:08.746Z,93.40
2017-06-27T20:58:36.199Z,93.40
2017-06-27T21:01:03.638Z,93.40
2017-06-27T21:03:31.893Z,93.40
2017-06-27T21:05:59.306Z,93.30
2017-06-27T21:08:26.781Z,93.30
2017-06-27T21:10:54.211Z,93.60
2017-06-27T21:13:21.647Z,93.70
2017-06-27T21:15:49.112Z,93.80
2017-06-27T21:18:16.538Z,94.00
2017-06-27T21:20:43.987Z,94.10
2017-06-27T21:23:11.436Z,94.30
2017-06-27T21:25:38.888Z,94.20
2017-06-27T21:28:06.324Z,94.50
2017-06-27T21:30:33.773Z,94.60
2017-06-27T21:33:01.215Z,94.60
2017-06-27T21:35:28.671Z,94.80
2017-06-27T21:37:56.112Z,94.90
2017-06-27T21:40:24.338Z,94.90
2017-06-27T21:42:51.779Z,94.90
2017-06-27T21:45:19.223Z,94.80
2017-06-27T21:47:46.689Z,94.60
2017-06-27T21:50:14.127Z,94.40
2017-06-27T21:52:41.575Z,94.20
2017-06-27T21:55:09.011Z,94.00
2017-06-27T21:57:36.471Z,93.90
2017-06-27T22:00:04.685Z,93.80
2017-06-27T22:02:32.143Z,93.80
2017-06-27T22:04:59.575Z,93.80
2017-06-27T22:07:27.024Z,93.70
2017-06-27T22:09:55.231Z,93.60
2017-06-27T22:12:22.708Z,93.50
2017-06-27T22:14:50.148Z,93.50
2017-06-27T22:17:17.587Z,93.50
2017-06-27T22:19:45.037Z,93.20
2017-06-27T22:22:12.471Z,93.10
2017-06-27T22:24:39.932Z,93.00
2017-06-27T22:27:08.152Z,92.60
2017-06-27T22:29:35.607Z,92.60
2017-06-27T22:32:03.047Z,92.70
2017-06-27T22:34:30.495Z,92.60
2017-06-27T22:36:57.935Z,92.80
2017-06-27T22:39:26.156Z,93.30
2017-06-27T22:41:53.595Z,93.00
2017-06-27T22:44:21.068Z,92.70
2017-06-27T22:46:48.525Z,92.10
2017-06-27T22:49:15.959Z,91.90
2017-06-27T22:51:43.408Z,92.00
2017-06-27T22:54:10.852Z,91.70
2017-06-27T22:56:39.067Z,91.90
2017-06-27T22:59:06.515Z,91.90
2017-06-27T23:01:33.986Z,92.00
2017-06-27T23:04:01.425Z,92.10
2017-06-27T23:06:28.867Z,92.20
2017-06-27T23:08:56.311Z,92.30
2017-06-27T23:11:24.531Z,92.50
2017-06-27T23:13:51.992Z,92.50
2017-06-27T23:16:19.451Z,92.50
2017-06-27T23:18:46.901Z,92.60
2017-06-27T23:21:14.364Z,92.70
2017-06-27T23:23:41.812Z,92.80
2017-06-27T23:26:09.247Z,92.90
2017-06-27T23:28:36.711Z,92.90
2017-06-27T23:31:04.155Z,93.00
2017-06-27T23:33:31.603Z,93.00
2017-06-27T23:35:59.803Z,93.10
2017-06-27T23:38:27.251Z,93.00
2017-06-27T23:40:54.695Z,93.00
2017-06-27T23:43:22.914Z,92.90
2017-06-27T23:45:50.365Z,92.90
2017-06-27T23:48:17.816Z,92.70
2017-06-27T23:50:45.255Z,92.90
2017-06-27T23:53:12.699Z,93.30
2017-06-27T23:55:40.156Z,93.00
2017-06-27T23:58:08.364Z,93.00
